sensor_id;sensor_type;location;lat;lon;timestamp;P1;durP1;ratioP1;P2;durP2;ratioP2
69008;SDS011;56065;52.472;13.380;2022-09-30T00:01:18;13.20;;;6.37;;
69008;SDS011;56065;52.472;13.380;2022-09-30T00:03:43;14.30;;;6.40;;
69008;SDS011;56065;52.472;13.380;2022-09-30T00:06:09;13.80;;;6.45;;
69008;SDS011;56065;52.472;13.380;2022-09-30T00:08:36;13.90;;;7.20;;
69008;SDS011;56065;52.472;13.380;2022-09-30T00:11:03;14.35;;;7.25;;
69008;SDS011;56065;52.472;13.380;2022-09-30T00:13:30;12.50;;;6.75;;
69008;SDS011;56065;52.472;13.380;2022-09-30T00:15:57;14.43;;;7.63;;
69008;SDS011;56065;52.472;13.380;2022-09-30T00:18:24;12.30;;;7.23;;
69008;SDS011;56065;52.472;13.380;2022-09-30T00:20:49;14.48;;;6.97;;
69008;SDS011;56065;52.472;13.380;2022-09-30T00:23:15;13.77;;;8.30;;
69008;SDS011;56065;52.472;13.380;2022-09-30T00:25:40;15.20;;;7.63;;
69008;SDS011;56065;52.472;13.380;2022-09-30T00:28:05;17.13;;;8.70;;
69008;SDS011;56065;52.472;13.380;2022-09-30T00:30:32;13.25;;;7.43;;
69008;SDS011;56065;52.472;13.380;2022-09-30T00:32:58;15.27;;;7.82;;
69008;SDS011;56065;52.472;13.380;2022-09-30T00:35:24;13.85;;;7.35;;
69008;SDS011;56065;52.472;13.380;2022-09-30T00:37:49;15.77;;;6.83;;
69008;SDS011;56065;52.472;13.380;2022-09-30T00:40:15;14.30;;;7.33;;
69008;SDS011;56065;52.472;13.380;2022-09-30T00:42:40;13.40;;;7.07;;
69008;SDS011;56065;52.472;13.380;2022-09-30T00:45:06;12.47;;;7.07;;
69008;SDS011;56065;52.472;13.380;2022-09-30T00:47:43;13.02;;;7.40;;
69008;SDS011;56065;52.472;13.380;2022-09-30T00:58:08;12.60;;;7.17;;
69008;SDS011;56065;52.472;13.380;2022-09-30T01:00:37;15.40;;;7.38;;
69008;SDS011;56065;52.472;13.380;2022-09-30T01:03:03;14.67;;;7.53;;
69008;SDS011;56065;52.472;13.380;2022-09-30T01:05:30;13.65;;;7.68;;
69008;SDS011;56065;52.472;13.380;2022-09-30T01:07:57;13.02;;;7.18;;
69008;SDS011;56065;52.472;13.380;2022-09-30T01:10:24;12.93;;;7.28;;
69008;SDS011;56065;52.472;13.380;2022-09-30T01:12:49;12.93;;;7.07;;
69008;SDS011;56065;52.472;13.380;2022-09-30T01:15:15;13.73;;;7.10;;
69008;SDS011;56065;52.472;13.380;2022-09-30T01:17:49;13.75;;;7.35;;
69008;SDS011;56065;52.472;13.380;2022-09-30T01:23:22;12.48;;;6.90;;
69008;SDS011;56065;52.472;13.380;2022-09-30T01:25:58;13.93;;;7.03;;
69008;SDS011;56065;52.472;13.380;2022-09-30T01:36:56;13.98;;;6.90;;
69008;SDS011;56065;52.472;13.380;2022-09-30T01:50:22;13.05;;;6.63;;
69008;SDS011;56065;52.472;13.380;2022-09-30T01:56:03;13.45;;;6.75;;
69008;SDS011;56065;52.472;13.380;2022-09-30T01:58:49;11.88;;;6.35;;
69008;SDS011;56065;52.472;13.380;2022-09-30T02:01:24;12.17;;;5.93;;
69008;SDS011;56065;52.472;13.380;2022-09-30T02:03:55;12.40;;;6.68;;
69008;SDS011;56065;52.472;13.380;2022-09-30T02:06:25;12.50;;;6.93;;
69008;SDS011;56065;52.472;13.380;2022-09-30T02:08:59;10.77;;;6.03;;
69008;SDS011;56065;52.472;13.380;2022-09-30T02:11:29;12.68;;;6.70;;
69008;SDS011;56065;52.472;13.380;2022-09-30T02:14:02;12.20;;;5.80;;
69008;SDS011;56065;52.472;13.380;2022-09-30T02:16:38;14.20;;;6.60;;
69008;SDS011;56065;52.472;13.380;2022-09-30T02:21:58;11.98;;;6.20;;
69008;SDS011;56065;52.472;13.380;2022-09-30T02:24:29;13.52;;;6.10;;
69008;SDS011;56065;52.472;13.380;2022-09-30T02:27:00;12.43;;;6.33;;
69008;SDS011;56065;52.472;13.380;2022-09-30T02:29:29;13.45;;;6.05;;
69008;SDS011;56065;52.472;13.380;2022-09-30T02:32:00;14.45;;;6.57;;
69008;SDS011;56065;52.472;13.380;2022-09-30T02:34:39;12.43;;;6.10;;
69008;SDS011;56065;52.472;13.380;2022-09-30T02:39:57;12.90;;;6.53;;
69008;SDS011;56065;52.472;13.380;2022-09-30T02:42:31;12.50;;;6.43;;
69008;SDS011;56065;52.472;13.380;2022-09-30T02:45:01;13.93;;;6.50;;
69008;SDS011;56065;52.472;13.380;2022-09-30T02:50:05;13.53;;;6.53;;
69008;SDS011;56065;52.472;13.380;2022-09-30T03:00:29;13.50;;;6.03;;
69008;SDS011;56065;52.472;13.380;2022-09-30T03:02:59;15.03;;;6.73;;
69008;SDS011;56065;52.472;13.380;2022-09-30T03:05:29;11.70;;;5.65;;
69008;SDS011;56065;52.472;13.380;2022-09-30T03:07:54;12.87;;;6.50;;
69008;SDS011;56065;52.472;13.380;2022-09-30T03:10:21;12.60;;;6.57;;
69008;SDS011;56065;52.472;13.380;2022-09-30T03:20:54;15.02;;;6.55;;
69008;SDS011;56065;52.472;13.380;2022-09-30T03:26:33;13.27;;;6.22;;
69008;SDS011;56065;52.472;13.380;2022-09-30T03:29:37;14.05;;;7.07;;
69008;SDS011;56065;52.472;13.380;2022-09-30T03:32:11;12.10;;;6.20;;
69008;SDS011;56065;52.472;13.380;2022-09-30T03:37:41;14.23;;;6.53;;
69008;SDS011;56065;52.472;13.380;2022-09-30T03:40:24;12.15;;;6.22;;
69008;SDS011;56065;52.472;13.380;2022-09-30T03:48:25;12.82;;;6.35;;
69008;SDS011;56065;52.472;13.380;2022-09-30T03:50:52;14.97;;;7.07;;
69008;SDS011;56065;52.472;13.380;2022-09-30T03:53:18;15.32;;;6.70;;
69008;SDS011;56065;52.472;13.380;2022-09-30T03:55:45;15.73;;;6.95;;
69008;SDS011;56065;52.472;13.380;2022-09-30T03:58:12;14.30;;;6.00;;
69008;SDS011;56065;52.472;13.380;2022-09-30T04:00:39;13.17;;;6.47;;
69008;SDS011;56065;52.472;13.380;2022-09-30T04:03:18;11.60;;;6.63;;
69008;SDS011;56065;52.472;13.380;2022-09-30T04:05:46;13.02;;;6.95;;
69008;SDS011;56065;52.472;13.380;2022-09-30T04:08:12;12.32;;;6.43;;
69008;SDS011;56065;52.472;13.380;2022-09-30T04:10:38;14.80;;;7.10;;
69008;SDS011;56065;52.472;13.380;2022-09-30T04:13:05;16.27;;;7.25;;
69008;SDS011;56065;52.472;13.380;2022-09-30T04:15:31;13.98;;;6.95;;
69008;SDS011;56065;52.472;13.380;2022-09-30T04:17:57;13.83;;;6.97;;
69008;SDS011;56065;52.472;13.380;2022-09-30T04:20:23;13.00;;;6.70;;
69008;SDS011;56065;52.472;13.380;2022-09-30T04:22:48;14.70;;;7.17;;
69008;SDS011;56065;52.472;13.380;2022-09-30T04:25:13;13.77;;;7.03;;
69008;SDS011;56065;52.472;13.380;2022-09-30T04:27:39;14.83;;;6.47;;
69008;SDS011;56065;52.472;13.380;2022-09-30T04:30:04;13.80;;;6.67;;
69008;SDS011;56065;52.472;13.380;2022-09-30T04:32:30;13.07;;;6.97;;
69008;SDS011;56065;52.472;13.380;2022-09-30T04:34:56;13.27;;;6.82;;
69008;SDS011;56065;52.472;13.380;2022-09-30T04:37:21;13.30;;;6.20;;
69008;SDS011;56065;52.472;13.380;2022-09-30T04:39:47;12.18;;;6.20;;
69008;SDS011;56065;52.472;13.380;2022-09-30T04:42:13;12.70;;;6.20;;
69008;SDS011;56065;52.472;13.380;2022-09-30T04:44:38;12.60;;;6.63;;
69008;SDS011;56065;52.472;13.380;2022-09-30T04:47:04;13.87;;;7.10;;
69008;SDS011;56065;52.472;13.380;2022-09-30T04:49:30;13.27;;;6.78;;
69008;SDS011;56065;52.472;13.380;2022-09-30T04:51:56;12.03;;;6.60;;
69008;SDS011;56065;52.472;13.380;2022-09-30T04:54:21;12.43;;;6.93;;
69008;SDS011;56065;52.472;13.380;2022-09-30T04:56:48;13.73;;;6.60;;
69008;SDS011;56065;52.472;13.380;2022-09-30T04:59:13;11.80;;;6.50;;
69008;SDS011;56065;52.472;13.380;2022-09-30T05:01:39;14.03;;;7.17;;
69008;SDS011;56065;52.472;13.380;2022-09-30T05:04:06;14.53;;;7.03;;
69008;SDS011;56065;52.472;13.380;2022-09-30T05:06:32;17.30;;;6.63;;
69008;SDS011;56065;52.472;13.380;2022-09-30T05:08:57;13.43;;;6.83;;
69008;SDS011;56065;52.472;13.380;2022-09-30T05:11:23;11.47;;;5.83;;
69008;SDS011;56065;52.472;13.380;2022-09-30T05:13:48;11.07;;;5.50;;
69008;SDS011;56065;52.472;13.380;2022-09-30T05:16:15;10.77;;;5.50;;
69008;SDS011;56065;52.472;13.380;2022-09-30T05:18:41;14.30;;;6.68;;
69008;SDS011;56065;52.472;13.380;2022-09-30T05:21:09;12.43;;;6.22;;
69008;SDS011;56065;52.472;13.380;2022-09-30T05:23:36;13.93;;;6.40;;
69008;SDS011;56065;52.472;13.380;2022-09-30T05:26:02;12.65;;;6.65;;
69008;SDS011;56065;52.472;13.380;2022-09-30T05:28:29;14.80;;;7.43;;
69008;SDS011;56065;52.472;13.380;2022-09-30T05:30:59;14.25;;;7.22;;
69008;SDS011;56065;52.472;13.380;2022-09-30T05:33:30;19.38;;;7.78;;
69008;SDS011;56065;52.472;13.380;2022-09-30T05:35:59;14.55;;;7.45;;
69008;SDS011;56065;52.472;13.380;2022-09-30T05:38:26;14.77;;;7.60;;
69008;SDS011;56065;52.472;13.380;2022-09-30T05:40:51;13.23;;;6.47;;
69008;SDS011;56065;52.472;13.380;2022-09-30T05:43:18;11.90;;;6.25;;
69008;SDS011;56065;52.472;13.380;2022-09-30T05:45:50;13.53;;;6.33;;
69008;SDS011;56065;52.472;13.380;2022-09-30T05:48:17;12.30;;;5.95;;
69008;SDS011;56065;52.472;13.380;2022-09-30T05:50:42;11.90;;;6.47;;
69008;SDS011;56065;52.472;13.380;2022-09-30T05:53:07;13.77;;;6.60;;
69008;SDS011;56065;52.472;13.380;2022-09-30T05:55:33;14.93;;;6.57;;
69008;SDS011;56065;52.472;13.380;2022-09-30T05:57:58;15.87;;;6.40;;
69008;SDS011;56065;52.472;13.380;2022-09-30T06:00:23;13.27;;;5.95;;
69008;SDS011;56065;52.472;13.380;2022-09-30T06:02:52;13.27;;;6.20;;
69008;SDS011;56065;52.472;13.380;2022-09-30T06:05:17;11.88;;;5.90;;
69008;SDS011;56065;52.472;13.380;2022-09-30T06:07:42;11.03;;;5.70;;
69008;SDS011;56065;52.472;13.380;2022-09-30T06:10:08;12.90;;;6.20;;
69008;SDS011;56065;52.472;13.380;2022-09-30T06:12:36;13.05;;;7.30;;
69008;SDS011;56065;52.472;13.380;2022-09-30T06:15:02;13.68;;;6.55;;
69008;SDS011;56065;52.472;13.380;2022-09-30T06:17:28;13.37;;;6.37;;
69008;SDS011;56065;52.472;13.380;2022-09-30T06:19:54;11.27;;;5.90;;
69008;SDS011;56065;52.472;13.380;2022-09-30T06:22:20;11.23;;;6.03;;
69008;SDS011;56065;52.472;13.380;2022-09-30T06:24:45;13.30;;;6.03;;
69008;SDS011;56065;52.472;13.380;2022-09-30T06:27:10;11.63;;;6.23;;
69008;SDS011;56065;52.472;13.380;2022-09-30T06:29:36;10.15;;;5.30;;
69008;SDS011;56065;52.472;13.380;2022-09-30T06:32:02;12.70;;;5.53;;
69008;SDS011;56065;52.472;13.380;2022-09-30T06:34:28;9.45;;;5.28;;
69008;SDS011;56065;52.472;13.380;2022-09-30T06:36:53;12.53;;;5.60;;
69008;SDS011;56065;52.472;13.380;2022-09-30T06:39:19;11.97;;;5.80;;
69008;SDS011;56065;52.472;13.380;2022-09-30T06:41:44;10.80;;;6.00;;
69008;SDS011;56065;52.472;13.380;2022-09-30T06:44:10;12.73;;;5.90;;
69008;SDS011;56065;52.472;13.380;2022-09-30T06:46:36;12.77;;;6.20;;
69008;SDS011;56065;52.472;13.380;2022-09-30T06:49:01;11.90;;;6.13;;
69008;SDS011;56065;52.472;13.380;2022-09-30T06:51:28;10.18;;;6.18;;
69008;SDS011;56065;52.472;13.380;2022-09-30T06:53:57;11.73;;;5.97;;
69008;SDS011;56065;52.472;13.380;2022-09-30T06:56:23;11.68;;;6.03;;
69008;SDS011;56065;52.472;13.380;2022-09-30T06:58:48;11.77;;;6.30;;
69008;SDS011;56065;52.472;13.380;2022-09-30T07:01:13;12.37;;;6.07;;
69008;SDS011;56065;52.472;13.380;2022-09-30T07:03:39;11.60;;;6.67;;
69008;SDS011;56065;52.472;13.380;2022-09-30T07:06:09;12.75;;;6.82;;
69008;SDS011;56065;52.472;13.380;2022-09-30T07:08:36;13.00;;;6.07;;
69008;SDS011;56065;52.472;13.380;2022-09-30T07:11:07;12.10;;;6.85;;
69008;SDS011;56065;52.472;13.380;2022-09-30T07:13:40;10.90;;;6.47;;
69008;SDS011;56065;52.472;13.380;2022-09-30T07:16:07;11.07;;;6.15;;
69008;SDS011;56065;52.472;13.380;2022-09-30T07:18:43;10.32;;;6.20;;
69008;SDS011;56065;52.472;13.380;2022-09-30T07:21:09;11.90;;;7.10;;
69008;SDS011;56065;52.472;13.380;2022-09-30T07:23:37;11.05;;;6.20;;
69008;SDS011;56065;52.472;13.380;2022-09-30T07:26:03;9.63;;;6.20;;
69008;SDS011;56065;52.472;13.380;2022-09-30T07:28:30;10.00;;;5.70;;
69008;SDS011;56065;52.472;13.380;2022-09-30T07:31:07;11.38;;;6.28;;
69008;SDS011;56065;52.472;13.380;2022-09-30T07:33:36;11.80;;;7.23;;
69008;SDS011;56065;52.472;13.380;2022-09-30T07:36:03;11.65;;;6.85;;
69008;SDS011;56065;52.472;13.380;2022-09-30T07:38:29;14.65;;;7.22;;
69008;SDS011;56065;52.472;13.380;2022-09-30T07:40:59;10.57;;;6.47;;
69008;SDS011;56065;52.472;13.380;2022-09-30T07:43:28;12.20;;;7.47;;
69008;SDS011;56065;52.472;13.380;2022-09-30T07:46:14;13.73;;;7.90;;
69008;SDS011;56065;52.472;13.380;2022-09-30T07:48:46;12.02;;;6.85;;
69008;SDS011;56065;52.472;13.380;2022-09-30T07:51:22;12.20;;;7.38;;
69008;SDS011;56065;52.472;13.380;2022-09-30T07:54:17;12.02;;;7.50;;
69008;SDS011;56065;52.472;13.380;2022-09-30T07:56:43;12.02;;;7.32;;
69008;SDS011;56065;52.472;13.380;2022-09-30T07:59:10;13.23;;;7.43;;
69008;SDS011;56065;52.472;13.380;2022-09-30T08:01:36;13.80;;;7.80;;
69008;SDS011;56065;52.472;13.380;2022-09-30T08:04:02;15.10;;;8.47;;
69008;SDS011;56065;52.472;13.380;2022-09-30T08:06:30;13.93;;;7.95;;
69008;SDS011;56065;52.472;13.380;2022-09-30T08:08:56;14.02;;;7.40;;
69008;SDS011;56065;52.472;13.380;2022-09-30T08:11:24;14.50;;;7.88;;
69008;SDS011;56065;52.472;13.380;2022-09-30T08:13:51;13.63;;;8.40;;
69008;SDS011;56065;52.472;13.380;2022-09-30T08:16:20;14.70;;;8.30;;
69008;SDS011;56065;52.472;13.380;2022-09-30T08:18:47;13.43;;;7.80;;
69008;SDS011;56065;52.472;13.380;2022-09-30T08:21:13;14.77;;;8.73;;
69008;SDS011;56065;52.472;13.380;2022-09-30T08:23:38;14.33;;;8.37;;
69008;SDS011;56065;52.472;13.380;2022-09-30T08:26:08;14.87;;;8.97;;
69008;SDS011;56065;52.472;13.380;2022-09-30T08:28:36;11.52;;;7.57;;
69008;SDS011;56065;52.472;13.380;2022-09-30T08:31:22;12.90;;;8.65;;
69008;SDS011;56065;52.472;13.380;2022-09-30T08:33:48;15.15;;;8.40;;
69008;SDS011;56065;52.472;13.380;2022-09-30T08:36:15;12.33;;;8.50;;
69008;SDS011;56065;52.472;13.380;2022-09-30T08:38:42;12.95;;;8.70;;
69008;SDS011;56065;52.472;13.380;2022-09-30T08:46:43;13.93;;;8.80;;
69008;SDS011;56065;52.472;13.380;2022-09-30T08:49:32;14.23;;;8.40;;
69008;SDS011;56065;52.472;13.380;2022-09-30T08:55:25;11.43;;;9.05;;
69008;SDS011;56065;52.472;13.380;2022-09-30T08:57:57;10.45;;;6.90;;
69008;SDS011;56065;52.472;13.380;2022-09-30T09:00:23;10.63;;;6.87;;
69008;SDS011;56065;52.472;13.380;2022-09-30T09:05:23;11.63;;;7.63;;
69008;SDS011;56065;52.472;13.380;2022-09-30T09:08:03;12.60;;;6.70;;
69008;SDS011;56065;52.472;13.380;2022-09-30T09:10:45;10.52;;;7.03;;
69008;SDS011;56065;52.472;13.380;2022-09-30T09:18:58;9.93;;;5.97;;
69008;SDS011;56065;52.472;13.380;2022-09-30T09:24:24;9.75;;;5.47;;
69008;SDS011;56065;52.472;13.380;2022-09-30T09:26:52;10.50;;;6.43;;
69008;SDS011;56065;52.472;13.380;2022-09-30T09:32:05;8.90;;;5.07;;
69008;SDS011;56065;52.472;13.380;2022-09-30T09:34:36;8.63;;;6.20;;
69008;SDS011;56065;52.472;13.380;2022-09-30T09:37:11;8.20;;;5.07;;
69008;SDS011;56065;52.472;13.380;2022-09-30T09:40:50;8.83;;;5.50;;
69008;SDS011;56065;52.472;13.380;2022-09-30T09:51:46;9.27;;;5.43;;
69008;SDS011;56065;52.472;13.380;2022-09-30T09:54:13;10.37;;;6.23;;
69008;SDS011;56065;52.472;13.380;2022-09-30T09:56:43;8.10;;;4.35;;
69008;SDS011;56065;52.472;13.380;2022-09-30T09:59:10;9.77;;;5.67;;
69008;SDS011;56065;52.472;13.380;2022-09-30T10:01:42;7.68;;;4.13;;
69008;SDS011;56065;52.472;13.380;2022-09-30T10:06:52;8.30;;;4.55;;
69008;SDS011;56065;52.472;13.380;2022-09-30T10:09:27;6.90;;;4.40;;
69008;SDS011;56065;52.472;13.380;2022-09-30T10:14:49;7.43;;;4.88;;
69008;SDS011;56065;52.472;13.380;2022-09-30T10:17:29;8.40;;;4.53;;
69008;SDS011;56065;52.472;13.380;2022-09-30T10:20:19;7.90;;;5.35;;
69008;SDS011;56065;52.472;13.380;2022-09-30T10:23:15;10.18;;;4.88;;
69008;SDS011;56065;52.472;13.380;2022-09-30T10:28:27;7.10;;;4.57;;
69008;SDS011;56065;52.472;13.380;2022-09-30T10:33:22;7.23;;;4.77;;
69008;SDS011;56065;52.472;13.380;2022-09-30T10:38:36;7.40;;;4.20;;
69008;SDS011;56065;52.472;13.380;2022-09-30T10:41:09;7.38;;;4.80;;
69008;SDS011;56065;52.472;13.380;2022-09-30T10:43:36;7.97;;;4.33;;
69008;SDS011;56065;52.472;13.380;2022-09-30T10:46:07;5.88;;;3.45;;
69008;SDS011;56065;52.472;13.380;2022-09-30T10:48:34;7.03;;;2.87;;
69008;SDS011;56065;52.472;13.380;2022-09-30T10:51:00;6.82;;;3.55;;
69008;SDS011;56065;52.472;13.380;2022-09-30T10:53:33;5.78;;;2.88;;
69008;SDS011;56065;52.472;13.380;2022-09-30T10:55:59;7.50;;;3.17;;
69008;SDS011;56065;52.472;13.380;2022-09-30T11:03:53;5.88;;;3.03;;
69008;SDS011;56065;52.472;13.380;2022-09-30T11:06:32;8.45;;;3.88;;
69008;SDS011;56065;52.472;13.380;2022-09-30T11:09:03;6.57;;;3.80;;
69008;SDS011;56065;52.472;13.380;2022-09-30T11:11:36;5.75;;;2.80;;
69008;SDS011;56065;52.472;13.380;2022-09-30T11:24:31;6.70;;;3.30;;
69008;SDS011;56065;52.472;13.380;2022-09-30T11:32:48;6.13;;;2.42;;
69008;SDS011;56065;52.472;13.380;2022-09-30T11:38:30;7.40;;;2.90;;
69008;SDS011;56065;52.472;13.380;2022-09-30T11:49:19;4.97;;;2.60;;
69008;SDS011;56065;52.472;13.380;2022-09-30T11:57:29;8.10;;;2.53;;
69008;SDS011;56065;52.472;13.380;2022-09-30T12:02:49;7.40;;;2.30;;
69008;SDS011;56065;52.472;13.380;2022-09-30T12:05:28;6.93;;;2.50;;
69008;SDS011;56065;52.472;13.380;2022-09-30T12:10:45;5.50;;;2.10;;
69008;SDS011;56065;52.472;13.380;2022-09-30T12:13:17;6.32;;;2.10;;
69008;SDS011;56065;52.472;13.380;2022-09-30T12:15:46;6.63;;;2.20;;
69008;SDS011;56065;52.472;13.380;2022-09-30T12:18:18;4.80;;;1.83;;
69008;SDS011;56065;52.472;13.380;2022-09-30T12:20:50;5.50;;;1.90;;
69008;SDS011;56065;52.472;13.380;2022-09-30T12:23:20;6.70;;;1.77;;
69008;SDS011;56065;52.472;13.380;2022-09-30T12:25:50;6.35;;;2.78;;
69008;SDS011;56065;52.472;13.380;2022-09-30T12:28:39;5.75;;;2.20;;
69008;SDS011;56065;52.472;13.380;2022-09-30T12:47:57;6.15;;;1.75;;
69008;SDS011;56065;52.472;13.380;2022-09-30T12:50:28;7.90;;;1.80;;
69008;SDS011;56065;52.472;13.380;2022-09-30T12:53:01;5.78;;;1.70;;
69008;SDS011;56065;52.472;13.380;2022-09-30T12:55:37;4.85;;;1.60;;
69008;SDS011;56065;52.472;13.380;2022-09-30T12:58:05;5.18;;;1.50;;
69008;SDS011;56065;52.472;13.380;2022-09-30T13:00:40;4.47;;;1.48;;
69008;SDS011;56065;52.472;13.380;2022-09-30T13:03:09;4.70;;;1.60;;
69008;SDS011;56065;52.472;13.380;2022-09-30T13:08:08;4.88;;;1.60;;
69008;SDS011;56065;52.472;13.380;2022-09-30T13:10:54;4.57;;;1.40;;
69008;SDS011;56065;52.472;13.380;2022-09-30T13:13:26;4.53;;;1.45;;
69008;SDS011;56065;52.472;13.380;2022-09-30T13:15:55;5.00;;;1.58;;
69008;SDS011;56065;52.472;13.380;2022-09-30T13:31:24;4.00;;;1.38;;
69008;SDS011;56065;52.472;13.380;2022-09-30T13:36:31;5.35;;;1.30;;
69008;SDS011;56065;52.472;13.380;2022-09-30T13:47:39;3.10;;;1.05;;
69008;SDS011;56065;52.472;13.380;2022-09-30T13:52:51;4.85;;;1.20;;
69008;SDS011;56065;52.472;13.380;2022-09-30T13:55:23;3.83;;;1.00;;
69008;SDS011;56065;52.472;13.380;2022-09-30T14:00:58;6.65;;;1.48;;
69008;SDS011;56065;52.472;13.380;2022-09-30T14:03:34;4.95;;;1.13;;
69008;SDS011;56065;52.472;13.380;2022-09-30T14:09:31;4.40;;;1.07;;
69008;SDS011;56065;52.472;13.380;2022-09-30T14:15:02;3.75;;;1.00;;
69008;SDS011;56065;52.472;13.380;2022-09-30T14:20:15;5.80;;;0.90;;
69008;SDS011;56065;52.472;13.380;2022-09-30T14:22:52;3.00;;;1.03;;
69008;SDS011;56065;52.472;13.380;2022-09-30T14:25:18;3.93;;;1.10;;
69008;SDS011;56065;52.472;13.380;2022-09-30T14:28:04;5.03;;;1.30;;
69008;SDS011;56065;52.472;13.380;2022-09-30T14:30:38;4.63;;;1.35;;
69008;SDS011;56065;52.472;13.380;2022-09-30T14:33:10;4.50;;;1.33;;
69008;SDS011;56065;52.472;13.380;2022-09-30T14:35:45;3.60;;;1.00;;
69008;SDS011;56065;52.472;13.380;2022-09-30T14:38:18;3.43;;;0.90;;
69008;SDS011;56065;52.472;13.380;2022-09-30T14:40:52;4.13;;;1.15;;
69008;SDS011;56065;52.472;13.380;2022-09-30T14:43:21;3.05;;;1.10;;
69008;SDS011;56065;52.472;13.380;2022-09-30T14:46:04;4.55;;;1.20;;
69008;SDS011;56065;52.472;13.380;2022-09-30T14:48:33;6.13;;;1.00;;
69008;SDS011;56065;52.472;13.380;2022-09-30T14:53:38;5.15;;;1.10;;
69008;SDS011;56065;52.472;13.380;2022-09-30T14:56:19;4.13;;;1.00;;
69008;SDS011;56065;52.472;13.380;2022-09-30T14:58:54;4.60;;;1.13;;
69008;SDS011;56065;52.472;13.380;2022-09-30T15:01:24;5.63;;;1.05;;
69008;SDS011;56065;52.472;13.380;2022-09-30T15:06:41;4.15;;;1.10;;
69008;SDS011;56065;52.472;13.380;2022-09-30T15:09:20;4.85;;;1.42;;
69008;SDS011;56065;52.472;13.380;2022-09-30T15:11:50;3.60;;;1.00;;
69008;SDS011;56065;52.472;13.380;2022-09-30T15:14:17;4.20;;;1.10;;
69008;SDS011;56065;52.472;13.380;2022-09-30T15:16:48;4.90;;;1.10;;
69008;SDS011;56065;52.472;13.380;2022-09-30T15:19:16;3.35;;;1.05;;
69008;SDS011;56065;52.472;13.380;2022-09-30T15:21:45;4.32;;;1.27;;
69008;SDS011;56065;52.472;13.380;2022-09-30T15:24:13;4.22;;;1.10;;
69008;SDS011;56065;52.472;13.380;2022-09-30T15:26:39;7.20;;;1.58;;
69008;SDS011;56065;52.472;13.380;2022-09-30T15:29:08;4.67;;;1.30;;
69008;SDS011;56065;52.472;13.380;2022-09-30T15:31:39;4.55;;;1.08;;
69008;SDS011;56065;52.472;13.380;2022-09-30T15:34:14;5.25;;;1.10;;
69008;SDS011;56065;52.472;13.380;2022-09-30T15:36:42;4.55;;;1.42;;
69008;SDS011;56065;52.472;13.380;2022-09-30T15:39:21;3.35;;;1.17;;
69008;SDS011;56065;52.472;13.380;2022-09-30T15:42:29;4.83;;;1.00;;
69008;SDS011;56065;52.472;13.380;2022-09-30T15:47:57;4.22;;;1.10;;
69008;SDS011;56065;52.472;13.380;2022-09-30T15:50:36;3.22;;;1.00;;
69008;SDS011;56065;52.472;13.380;2022-09-30T15:53:19;2.92;;;0.90;;
69008;SDS011;56065;52.472;13.380;2022-09-30T15:55:55;2.73;;;0.90;;
69008;SDS011;56065;52.472;13.380;2022-09-30T16:00:50;4.70;;;1.20;;
69008;SDS011;56065;52.472;13.380;2022-09-30T16:03:33;5.55;;;1.35;;
69008;SDS011;56065;52.472;13.380;2022-09-30T16:08:30;3.60;;;1.10;;
69008;SDS011;56065;52.472;13.380;2022-09-30T16:11:04;6.80;;;1.35;;
69008;SDS011;56065;52.472;13.380;2022-09-30T16:13:30;3.67;;;1.00;;
69008;SDS011;56065;52.472;13.380;2022-09-30T16:16:10;5.90;;;1.30;;
69008;SDS011;56065;52.472;13.380;2022-09-30T16:18:43;4.70;;;1.65;;
69008;SDS011;56065;52.472;13.380;2022-09-30T16:21:22;5.73;;;1.30;;
69008;SDS011;56065;52.472;13.380;2022-09-30T16:26:50;6.60;;;1.48;;
69008;SDS011;56065;52.472;13.380;2022-09-30T16:29:36;5.72;;;1.50;;
69008;SDS011;56065;52.472;13.380;2022-09-30T16:32:01;8.10;;;1.47;;
69008;SDS011;56065;52.472;13.380;2022-09-30T16:34:27;6.47;;;1.73;;
69008;SDS011;56065;52.472;13.380;2022-09-30T16:36:54;5.25;;;1.70;;
69008;SDS011;56065;52.472;13.380;2022-09-30T16:39:29;4.23;;;1.40;;
69008;SDS011;56065;52.472;13.380;2022-09-30T16:41:55;5.10;;;1.35;;
69008;SDS011;56065;52.472;13.380;2022-09-30T16:44:20;7.63;;;1.77;;
69008;SDS011;56065;52.472;13.380;2022-09-30T16:46:48;5.50;;;1.67;;
69008;SDS011;56065;52.472;13.380;2022-09-30T16:49:14;8.13;;;2.03;;
69008;SDS011;56065;52.472;13.380;2022-09-30T16:51:40;6.38;;;1.70;;
69008;SDS011;56065;52.472;13.380;2022-09-30T16:54:06;5.57;;;1.70;;
69008;SDS011;56065;52.472;13.380;2022-09-30T16:56:31;5.80;;;2.00;;
69008;SDS011;56065;52.472;13.380;2022-09-30T16:58:58;6.47;;;1.40;;
69008;SDS011;56065;52.472;13.380;2022-09-30T17:01:23;9.27;;;1.95;;
69008;SDS011;56065;52.472;13.380;2022-09-30T17:03:49;6.70;;;1.90;;
69008;SDS011;56065;52.472;13.380;2022-09-30T17:06:17;7.32;;;2.25;;
69008;SDS011;56065;52.472;13.380;2022-09-30T17:08:44;5.90;;;2.03;;
69008;SDS011;56065;52.472;13.380;2022-09-30T17:11:09;7.00;;;1.90;;
69008;SDS011;56065;52.472;13.380;2022-09-30T17:13:35;7.38;;;1.92;;
69008;SDS011;56065;52.472;13.380;2022-09-30T17:16:01;5.43;;;1.77;;
69008;SDS011;56065;52.472;13.380;2022-09-30T17:18:27;6.05;;;1.83;;
69008;SDS011;56065;52.472;13.380;2022-09-30T17:20:52;7.13;;;2.27;;
69008;SDS011;56065;52.472;13.380;2022-09-30T17:23:18;6.73;;;1.90;;
69008;SDS011;56065;52.472;13.380;2022-09-30T17:25:45;7.13;;;2.80;;
69008;SDS011;56065;52.472;13.380;2022-09-30T17:28:11;11.18;;;3.30;;
69008;SDS011;56065;52.472;13.380;2022-09-30T17:30:37;8.27;;;2.78;;
69008;SDS011;56065;52.472;13.380;2022-09-30T17:33:05;7.57;;;2.73;;
69008;SDS011;56065;52.472;13.380;2022-09-30T17:35:30;6.28;;;2.90;;
69008;SDS011;56065;52.472;13.380;2022-09-30T17:37:57;7.55;;;2.75;;
69008;SDS011;56065;52.472;13.380;2022-09-30T17:40:24;8.93;;;2.80;;
69008;SDS011;56065;52.472;13.380;2022-09-30T17:43:08;9.03;;;2.37;;
69008;SDS011;56065;52.472;13.380;2022-09-30T17:45:40;8.23;;;2.92;;
69008;SDS011;56065;52.472;13.380;2022-09-30T17:48:07;8.23;;;3.00;;
69008;SDS011;56065;52.472;13.380;2022-09-30T17:50:34;7.03;;;3.13;;
69008;SDS011;56065;52.472;13.380;2022-09-30T17:53:00;7.53;;;3.17;;
69008;SDS011;56065;52.472;13.380;2022-09-30T17:55:26;9.27;;;3.03;;
69008;SDS011;56065;52.472;13.380;2022-09-30T17:57:53;8.18;;;3.10;;
69008;SDS011;56065;52.472;13.380;2022-09-30T18:00:19;8.10;;;3.40;;
69008;SDS011;56065;52.472;13.380;2022-09-30T18:02:45;6.43;;;2.60;;
69008;SDS011;56065;52.472;13.380;2022-09-30T18:05:12;9.32;;;3.45;;
69008;SDS011;56065;52.472;13.380;2022-09-30T18:07:38;7.78;;;3.33;;
69008;SDS011;56065;52.472;13.380;2022-09-30T18:10:04;9.90;;;3.50;;
69008;SDS011;56065;52.472;13.380;2022-09-30T18:12:30;9.05;;;3.30;;
69008;SDS011;56065;52.472;13.380;2022-09-30T18:14:58;8.27;;;3.95;;
69008;SDS011;56065;52.472;13.380;2022-09-30T18:17:23;8.43;;;3.40;;
69008;SDS011;56065;52.472;13.380;2022-09-30T18:19:49;8.15;;;3.50;;
69008;SDS011;56065;52.472;13.380;2022-09-30T18:22:14;8.87;;;3.37;;
69008;SDS011;56065;52.472;13.380;2022-09-30T18:24:40;8.30;;;3.80;;
69008;SDS011;56065;52.472;13.380;2022-09-30T18:27:24;10.82;;;3.80;;
69008;SDS011;56065;52.472;13.380;2022-09-30T18:29:50;7.87;;;3.33;;
69008;SDS011;56065;52.472;13.380;2022-09-30T18:32:15;8.37;;;3.57;;
69008;SDS011;56065;52.472;13.380;2022-09-30T18:34:41;8.70;;;3.20;;
69008;SDS011;56065;52.472;13.380;2022-09-30T18:37:07;7.87;;;3.23;;